Main page
METAR-TAF:

METAR-TAF

Airports :

Port Harcourt International Airport

Port Harcourt, Nigeria

latitude: 04-51N, longitude: 007-01E, elevation: 18 m

Current weather observation

The report was made 6 hours and 21 minutes ago, at 22:00 UTC
Calm wind
Temperature 23°C
Humidity 100%
Pressure 1013 hPa
Visibility: 6000 m
Scattered clouds at a height of 700 ft

METAR: DNPO 222200Z 00000KT 6000 SCT007 23/23 Q1013 NOSIG

Time: 05:21 (04:21 UTC)

Forecast

The report was made 11 hours and 21 minutes ago, at 17:00 UTC
Forecast valid from 21 at 18 UTC to 22 at 24 UTC
Wind 4 kt from the West/Southwest
Visibility: 8000 m
Scattered clouds at a height of 1000 ft
Few clouds at a height of 2000 ft, Cumulonimbus.
Temporary
from 21 at 19 UTC to 21 at 22 UTC
thunderstorm
Becoming
from 21 at 22 UTC to 21 at 24 UTC
Scattered clouds at a height of 1000 ft
Temporary
from 22 at 03 UTC to 22 at 07 UTC
Visibility: 5000 m
mist

TAF: DNPO 211700Z 2118/2224 24004KT 8000 SCT010 FEW020CB TEMPO 2119/2122 TS BECMG 2122/2124 SCT010 TEMPO 2203/2207 5000 BR

Weather observations and forecasts of more than 4000 airports (METAR and TAF reports).

The available stations are represented by yellow and red dots on the map.

Hover mouse over dot to see the name of the station.

Then click to see weather observations and forecasts.

To change the map : click on the green buttons with a black cross to zoom in, on the green button with a dash to zoom out, or on the green arrows for adjacent maps.


METAR-TAF: